Time,TemperatureF,DewpointF,PressureIn,WindDirection,WindDirectionDegrees,WindSpeedMPH,WindSpeedGustMPH,Humidity,HourlyPrecipIn,Conditions,Clouds,dailyrainin,SolarRadiationWatts/m^2,SoftwareType,DateUTC
2013-06-09 00:22:00,43.0,41.0,-100.00,North,350,2.0,3.0,91,0.00,,,0.06,0.000000,,2013-06-09 06:22:00,
2013-06-09 01:22:00,41.0,39.0,-100.00,NW,305,1.0,3.0,94,0.00,,,0.06,0.000000,,2013-06-09 07:22:00,
2013-06-09 01:42:00,41.0,39.0,-100.00,NW,305,1.0,3.0,94,0.00,,,0.06,0.000000,,2013-06-09 07:42:00,
2013-06-09 01:52:00,41.0,39.0,-100.00,NW,305,1.0,3.0,94,0.00,,,0.06,0.000000,,2013-06-09 07:52:00,
2013-06-09 02:22:00,40.0,39.0,-100.00,NNW,336,2.0,3.0,95,0.00,,,0.05,0.000000,,2013-06-09 08:22:00,
2013-06-09 03:22:00,39.0,38.0,-100.00,NW,317,2.0,4.0,96,0.00,,,0.05,0.000000,,2013-06-09 09:22:00,
2013-06-09 03:43:00,39.0,38.0,-100.00,NW,317,2.0,4.0,96,0.00,,,0.05,0.000000,,2013-06-09 09:43:00,
2013-06-09 03:52:00,39.0,38.0,-100.00,NW,317,2.0,4.0,96,0.00,,,0.05,0.000000,,2013-06-09 09:52:00,
2013-06-09 04:23:00,38.0,37.0,-100.00,NNW,346,2.0,4.0,96,0.00,,,0.02,0.000000,,2013-06-09 10:23:00,
2013-06-09 05:22:00,38.0,37.0,-100.00,NNW,339,2.0,4.0,96,0.00,,,-99.99,0.000000,,2013-06-09 11:22:00,
2013-06-09 06:22:00,38.0,37.0,-100.00,NNW,328,2.0,4.0,97,0.00,,,0.00,10.000000,,2013-06-09 12:22:00,
2013-06-09 07:22:00,47.0,46.0,-100.00,NW,326,1.0,3.0,96,-99.99,,,0.00,90.000000,,2013-06-09 13:22:00,
2013-06-09 07:32:00,47.0,46.0,-100.00,NW,326,1.0,3.0,96,-99.99,,,0.00,90.000000,,2013-06-09 13:32:00,
2013-06-09 07:42:00,47.0,46.0,-100.00,NW,326,1.0,3.0,96,-99.99,,,0.00,90.000000,,2013-06-09 13:42:00,
2013-06-09 07:52:00,47.0,46.0,-100.00,NW,326,1.0,3.0,96,-99.99,,,0.00,90.000000,,2013-06-09 13:52:00,
2013-06-09 08:22:00,62.0,46.0,-100.00,NNE,18,3.0,4.0,55,-99.99,,,0.00,342.000000,,2013-06-09 14:22:00,
2013-06-09 08:32:00,62.0,46.0,-100.00,NNE,18,3.0,4.0,55,-99.99,,,0.00,342.000000,,2013-06-09 14:32:00,
2013-06-09 08:42:00,62.0,46.0,-100.00,NNE,18,3.0,4.0,55,-99.99,,,0.00,342.000000,,2013-06-09 14:42:00,
2013-06-09 08:52:00,62.0,46.0,-100.00,NNE,18,3.0,4.0,55,-99.99,,,0.00,342.000000,,2013-06-09 14:52:00,
2013-06-09 09:22:00,66.0,38.0,-100.00,North,1,6.0,13.0,35,0.00,,,0.00,538.000000,,2013-06-09 15:22:00,
2013-06-09 09:33:00,66.0,38.0,-100.00,North,1,6.0,13.0,35,0.00,,,0.00,538.000000,,2013-06-09 15:33:00,
2013-06-09 09:43:00,66.0,38.0,-100.00,North,1,6.0,13.0,35,0.00,,,0.00,538.000000,,2013-06-09 15:43:00,
2013-06-09 09:53:00,66.0,38.0,-100.00,North,1,6.0,13.0,35,0.00,,,0.00,538.000000,,2013-06-09 15:53:00,
2013-06-09 10:23:00,68.0,39.0,-100.00,North,354,6.0,13.0,34,0.00,,,0.00,715.000000,,2013-06-09 16:23:00,
2013-06-09 10:33:00,68.0,39.0,-100.00,North,354,6.0,13.0,34,0.00,,,0.00,715.000000,,2013-06-09 16:33:00,
2013-06-09 10:42:00,68.0,39.0,-100.00,North,354,6.0,13.0,34,0.00,,,0.00,715.000000,,2013-06-09 16:42:00,
2013-06-09 10:53:00,68.0,39.0,-100.00,North,354,6.0,13.0,34,0.00,,,0.00,715.000000,,2013-06-09 16:53:00,
2013-06-09 11:22:00,70.0,46.0,-100.00,NE,42,5.0,12.0,42,0.00,,,0.00,858.000000,,2013-06-09 17:22:00,
2013-06-09 11:32:00,70.0,46.0,-100.00,NE,42,5.0,12.0,42,0.00,,,0.00,858.000000,,2013-06-09 17:32:00,
2013-06-09 11:42:00,70.0,46.0,-100.00,NE,42,5.0,12.0,42,0.00,,,0.00,858.000000,,2013-06-09 17:42:00,
2013-06-09 11:52:00,70.0,46.0,-100.00,NE,42,5.0,12.0,42,0.00,,,0.00,858.000000,,2013-06-09 17:52:00,
2013-06-09 12:22:00,70.0,47.0,-100.00,ENE,76,5.0,13.0,44,0.00,,,0.00,956.000000,,2013-06-09 18:22:00,
2013-06-09 12:32:00,70.0,47.0,-100.00,ENE,76,5.0,13.0,44,0.00,,,0.00,956.000000,,2013-06-09 18:32:00,
2013-06-09 12:42:00,70.0,47.0,-100.00,ENE,76,5.0,13.0,44,0.00,,,0.00,956.000000,,2013-06-09 18:42:00,
2013-06-09 12:52:00,70.0,47.0,-100.00,ENE,76,5.0,13.0,44,0.00,,,0.00,956.000000,,2013-06-09 18:52:00,
2013-06-09 13:22:00,70.0,46.0,-100.00,SE,142,7.0,15.0,43,0.00,,,0.00,987.000000,,2013-06-09 19:22:00,
2013-06-09 13:32:00,70.0,46.0,-100.00,SE,142,7.0,15.0,43,0.00,,,0.00,987.000000,,2013-06-09 19:32:00,
2013-06-09 13:42:00,70.0,46.0,-100.00,SE,142,7.0,15.0,43,0.00,,,0.00,987.000000,,2013-06-09 19:42:00,
2013-06-09 13:52:00,70.0,46.0,-100.00,SE,142,7.0,15.0,43,0.00,,,0.00,987.000000,,2013-06-09 19:52:00,
2013-06-09 14:22:00,70.0,46.0,-100.00,SSE,155,9.0,15.0,42,0.00,,,0.00,982.000000,,2013-06-09 20:22:00,
2013-06-09 14:32:00,70.0,46.0,-100.00,SSE,155,9.0,15.0,42,0.00,,,0.00,982.000000,,2013-06-09 20:32:00,
2013-06-09 14:42:00,70.0,46.0,-100.00,SSE,155,9.0,15.0,42,0.00,,,0.00,982.000000,,2013-06-09 20:42:00,
2013-06-09 14:52:00,70.0,46.0,-100.00,SSE,155,9.0,15.0,42,0.00,,,0.00,982.000000,,2013-06-09 20:52:00,
2013-06-09 15:22:00,72.0,48.0,-100.00,SE,146,10.0,17.0,42,0.00,,,0.00,924.000000,,2013-06-09 21:22:00,
2013-06-09 15:33:00,72.0,48.0,-100.00,SE,146,10.0,17.0,42,0.00,,,0.00,924.000000,,2013-06-09 21:33:00,
2013-06-09 15:43:00,72.0,48.0,-100.00,SE,146,10.0,17.0,42,0.00,,,0.00,924.000000,,2013-06-09 21:43:00,
2013-06-09 15:53:00,72.0,48.0,-100.00,SE,146,10.0,17.0,42,0.00,,,0.00,924.000000,,2013-06-09 21:53:00,
2013-06-09 16:23:00,72.0,48.0,-100.00,SE,142,10.0,15.0,42,0.00,,,0.00,820.000000,,2013-06-09 22:23:00,
2013-06-09 16:33:00,72.0,48.0,-100.00,SE,142,10.0,15.0,42,0.00,,,0.00,820.000000,,2013-06-09 22:33:00,
2013-06-09 16:42:00,72.0,48.0,-100.00,SE,142,10.0,15.0,42,0.00,,,0.00,820.000000,,2013-06-09 22:42:00,
2013-06-09 16:52:00,72.0,48.0,-100.00,SE,142,10.0,15.0,42,0.00,,,0.00,820.000000,,2013-06-09 22:52:00,
2013-06-09 17:22:00,73.0,49.0,-100.00,SSE,147,9.0,17.0,43,0.00,,,0.00,666.000000,,2013-06-09 23:22:00,
2013-06-09 17:32:00,73.0,49.0,-100.00,SSE,147,9.0,17.0,43,0.00,,,0.00,666.000000,,2013-06-09 23:32:00,
2013-06-09 17:43:00,73.0,49.0,-100.00,SSE,147,9.0,17.0,43,0.00,,,0.00,666.000000,,2013-06-09 23:43:00,
2013-06-09 17:52:00,73.0,49.0,-100.00,SSE,147,9.0,17.0,43,0.00,,,0.00,666.000000,,2013-06-09 23:52:00,
2013-06-09 18:13:00,72.0,49.0,-100.00,SSE,147,11.0,15.0,44,0.00,,,0.00,495.000000,,2013-06-10 00:13:00,
2013-06-09 18:22:00,72.0,49.0,-100.00,SSE,147,11.0,15.0,44,0.00,,,0.00,495.000000,,2013-06-10 00:22:00,
2013-06-09 18:32:00,72.0,49.0,-100.00,SSE,147,11.0,15.0,44,0.00,,,0.00,495.000000,,2013-06-10 00:32:00,
2013-06-09 18:42:00,72.0,49.0,-100.00,SSE,147,11.0,15.0,44,0.00,,,0.00,495.000000,,2013-06-10 00:42:00,
2013-06-09 18:52:00,72.0,49.0,-100.00,SSE,147,11.0,15.0,44,0.00,,,0.00,495.000000,,2013-06-10 00:52:00,
2013-06-09 19:22:00,70.0,49.0,-100.00,SSE,152,8.0,15.0,48,0.00,,,0.00,310.000000,,2013-06-10 01:22:00,
2013-06-09 19:32:00,70.0,49.0,-100.00,SSE,152,8.0,15.0,48,0.00,,,0.00,310.000000,,2013-06-10 01:32:00,
2013-06-09 19:43:00,70.0,49.0,-100.00,SSE,152,8.0,15.0,48,0.00,,,0.00,310.000000,,2013-06-10 01:43:00,
2013-06-09 19:52:00,70.0,49.0,-100.00,SSE,152,8.0,15.0,48,0.00,,,0.00,310.000000,,2013-06-10 01:52:00,
2013-06-09 20:22:00,66.0,50.0,-100.00,SSE,160,6.0,15.0,56,0.00,,,0.00,76.000000,,2013-06-10 02:22:00,
2013-06-09 20:32:00,66.0,50.0,-100.00,SSE,160,6.0,15.0,56,0.00,,,0.00,76.000000,,2013-06-10 02:32:00,
2013-06-09 20:42:00,66.0,50.0,-100.00,SSE,160,6.0,15.0,56,0.00,,,0.00,76.000000,,2013-06-10 02:42:00,
2013-06-09 20:52:00,66.0,50.0,-100.00,SSE,160,6.0,15.0,56,0.00,,,0.00,76.000000,,2013-06-10 02:52:00,
2013-06-09 21:22:00,62.0,50.0,-100.00,SSE,162,6.0,10.0,64,0.00,,,0.00,8.000000,,2013-06-10 03:22:00,
2013-06-09 21:33:00,62.0,50.0,-100.00,SSE,162,6.0,10.0,64,0.00,,,0.00,8.000000,,2013-06-10 03:33:00,
2013-06-09 21:43:00,62.0,50.0,-100.00,SSE,162,6.0,10.0,64,0.00,,,0.00,8.000000,,2013-06-10 03:43:00,
2013-06-09 21:53:00,62.0,50.0,-100.00,SSE,162,6.0,10.0,64,0.00,,,0.00,8.000000,,2013-06-10 03:53:00,
2013-06-09 22:23:00,56.0,49.0,-100.00,SE,129,1.0,9.0,77,0.00,,,0.00,0.000000,,2013-06-10 04:23:00,
2013-06-09 22:33:00,56.0,49.0,-100.00,SE,129,1.0,9.0,77,0.00,,,0.00,0.000000,,2013-06-10 04:33:00,
2013-06-09 22:42:00,56.0,49.0,-100.00,SE,129,1.0,9.0,77,0.00,,,0.00,0.000000,,2013-06-10 04:42:00,
2013-06-09 22:52:00,56.0,49.0,-100.00,SE,129,1.0,9.0,77,0.00,,,0.00,0.000000,,2013-06-10 04:52:00,
2013-06-09 23:22:00,52.0,48.0,-100.00,WNW,303,2.0,4.0,85,0.00,,,0.00,0.000000,,2013-06-10 05:22:00,